Time;durP1;ratioP1;P1;durP2;ratioP2;P2;SDS_P1;SDS_P2;PMS_P1;PMS_P2;Temp;Humidity;BMP_temperature;BMP_pressure;BME280_temperature;BME280_humidity;BME280_pressure;Samples;Min_cycle;Max_cycle;Signal;HPM_P1;HPM_P2
2023/05/12 00:02:05;;;;;;;4.55;3.83;;;13.20;45.40;;;;;;4927059;29;20526;-58
2023/05/12 00:04:31;;;;;;;4.30;3.17;;;13.20;45.70;;;;;;4916276;29;20127;-58
2023/05/12 00:06:56;;;;;;;4.22;3.78;;;13.10;45.80;;;;;;4922922;29;20085;-58
2023/05/12 00:09:22;;;;;;;4.07;3.38;;;13.10;46.10;;;;;;4934043;29;20548;-58
2023/05/12 00:11:48;;;;;;;4.10;3.28;;;13.10;46.20;;;;;;4934514;29;20032;-61
2023/05/12 00:14:14;;;;;;;5.85;3.63;;;13.10;46.50;;;;;;4931995;29;20031;-61
2023/05/12 00:16:40;;;;;;;6.18;4.00;;;13.10;46.80;;;;;;4926381;29;20138;-60
2023/05/12 00:19:06;;;;;;;3.85;3.40;;;13.10;46.80;;;;;;4923574;29;20518;-61
2023/05/12 00:21:32;;;;;;;4.45;3.60;;;13.10;46.90;;;;;;4929883;29;20047;-60
2023/05/12 00:23:57;;;;;;;4.25;3.40;;;13.10;47.10;;;;;;4922986;29;20407;-61
2023/05/12 00:26:23;;;;;;;5.43;3.40;;;13.00;47.10;;;;;;4929548;29;20070;-59
2023/05/12 00:28:49;;;;;;;4.05;3.13;;;13.00;47.10;;;;;;4918586;29;20027;-59
2023/05/12 00:31:14;;;;;;;4.75;3.70;;;13.00;47.50;;;;;;4926776;29;20099;-55
2023/05/12 00:33:40;;;;;;;5.85;3.80;;;12.90;47.40;;;;;;4922309;29;20032;-57
2023/05/12 00:36:07;;;;;;;5.50;3.58;;;12.90;47.60;;;;;;4925846;29;20130;-57
2023/05/12 00:38:36;;;;;;;4.25;3.78;;;12.90;47.60;;;;;;4929184;29;20087;-58
2023/05/12 00:41:03;;;;;;;5.85;3.60;;;12.90;47.80;;;;;;4935390;29;20082;-61
2023/05/12 00:43:30;;;;;;;4.88;3.92;;;12.80;48.00;;;;;;4935539;29;20020;-63
2023/05/12 00:45:56;;;;;;;4.63;3.50;;;12.80;48.20;;;;;;4928122;29;20035;-57
2023/05/12 00:48:23;;;;;;;6.40;3.88;;;12.80;48.30;;;;;;4930960;29;20032;-55
2023/05/12 00:50:48;;;;;;;4.40;3.63;;;12.80;48.40;;;;;;4929100;29;20112;-61
2023/05/12 00:53:14;;;;;;;5.47;4.10;;;12.80;48.60;;;;;;4935529;29;20028;-61
2023/05/12 00:55:41;;;;;;;4.80;3.58;;;12.70;48.60;;;;;;4933922;29;20039;-61
2023/05/12 00:58:07;;;;;;;4.88;3.65;;;12.70;48.70;;;;;;4934308;29;20538;-61
2023/05/12 01:00:33;;;;;;;5.45;4.00;;;12.70;48.90;;;;;;4932991;29;20032;-63
2023/05/12 01:02:58;;;;;;;5.95;3.53;;;12.70;49.10;;;;;;4935964;29;20038;-59
2023/05/12 01:05:34;;;;;;;4.28;3.72;;;12.70;49.40;;;;;;4931754;29;20043;-59
2023/05/12 01:08:02;;;;;;;5.43;3.92;;;12.70;49.60;;;;;;4932525;29;20043;-59
2023/05/12 01:10:27;;;;;;;6.00;3.92;;;12.60;49.60;;;;;;4931261;29;20043;-59
2023/05/12 01:12:53;;;;;;;4.95;4.05;;;12.60;49.90;;;;;;4922843;29;20036;-59
2023/05/12 01:15:18;;;;;;;4.53;3.50;;;12.60;50.20;;;;;;4928587;29;20051;-59
2023/05/12 01:17:53;;;;;;;5.97;3.78;;;12.60;50.30;;;;;;4938770;29;20118;-60
2023/05/12 01:20:23;;;;;;;5.18;4.00;;;12.60;50.60;;;;;;4927094;29;20035;-61
2023/05/12 01:22:49;;;;;;;5.18;3.90;;;12.60;50.70;;;;;;4936270;29;20034;-57
2023/05/12 01:25:16;;;;;;;5.38;4.13;;;12.50;50.90;;;;;;4931352;29;20046;-57
2023/05/12 01:27:42;;;;;;;5.28;4.20;;;12.50;51.00;;;;;;4934263;29;20506;-62
2023/05/12 01:30:09;;;;;;;5.50;3.78;;;12.50;51.30;;;;;;4925686;29;20471;-62
2023/05/12 01:32:37;;;;;;;4.75;3.88;;;12.50;51.50;;;;;;4937127;29;20058;-61
2023/05/12 01:35:03;;;;;;;5.22;3.88;;;12.50;51.60;;;;;;4931609;29;20062;-60
2023/05/12 01:37:28;;;;;;;4.97;3.85;;;12.50;51.70;;;;;;4924124;29;20447;-48
2023/05/12 01:39:54;;;;;;;5.35;4.03;;;12.50;51.90;;;;;;4931654;29;20390;-56
2023/05/12 01:42:20;;;;;;;4.45;3.95;;;12.50;52.00;;;;;;4917572;29;20036;-59
2023/05/12 01:44:45;;;;;;;6.00;4.32;;;12.40;52.20;;;;;;4923696;29;20055;-59
2023/05/12 01:47:12;;;;;;;5.00;3.60;;;12.40;52.20;;;;;;4934209;29;20565;-53
2023/05/12 01:49:38;;;;;;;5.38;4.22;;;12.40;52.40;;;;;;4935657;29;20035;-52
2023/05/12 01:52:04;;;;;;;5.55;4.20;;;12.40;52.50;;;;;;4932419;29;20024;-54
2023/05/12 01:54:29;;;;;;;6.38;4.70;;;12.40;52.70;;;;;;4925411;29;20115;-50
2023/05/12 01:56:55;;;;;;;5.05;4.20;;;12.40;52.80;;;;;;4925678;29;20142;-59
2023/05/12 01:59:21;;;;;;;4.88;4.22;;;12.30;52.80;;;;;;4936203;29;20050;-59
2023/05/12 02:01:46;;;;;;;5.60;4.10;;;12.30;53.10;;;;;;4935577;29;20087;-53
2023/05/12 02:04:12;;;;;;;5.28;4.05;;;12.30;53.10;;;;;;4926041;29;20036;-51
2023/05/12 02:06:37;;;;;;;6.95;4.70;;;12.30;53.20;;;;;;4927533;29;20542;-51
2023/05/12 02:09:03;;;;;;;5.18;4.30;;;12.30;53.40;;;;;;4933400;29;20032;-56
2023/05/12 02:11:29;;;;;;;7.43;4.50;;;12.30;53.80;;;;;;4921958;29;20056;-59
2023/05/12 02:13:55;;;;;;;5.85;4.43;;;12.30;53.80;;;;;;4926842;29;20032;-58
2023/05/12 02:16:21;;;;;;;5.20;4.20;;;12.30;53.90;;;;;;4916772;29;20028;-59
2023/05/12 02:18:47;;;;;;;5.85;4.40;;;12.30;54.10;;;;;;4929463;29;20032;-58
2023/05/12 02:21:12;;;;;;;5.50;4.40;;;12.30;54.20;;;;;;4931545;29;20493;-60
2023/05/12 02:23:38;;;;;;;5.07;4.40;;;12.30;54.30;;;;;;4932683;29;20027;-63
2023/05/12 02:26:04;;;;;;;5.50;4.00;;;12.30;54.30;;;;;;4940279;29;20110;-61
2023/05/12 02:28:29;;;;;;;6.63;4.60;;;12.30;54.40;;;;;;4922922;29;20400;-64
2023/05/12 02:30:55;;;;;;;7.43;4.57;;;12.30;54.50;;;;;;4921279;29;20063;-63
2023/05/12 02:33:22;;;;;;;6.60;4.97;;;12.30;54.80;;;;;;4917706;29;20686;-63
2023/05/12 02:35:47;;;;;;;5.95;4.22;;;12.30;54.90;;;;;;4922198;29;20050;-60
2023/05/12 02:38:13;;;;;;;5.93;4.43;;;12.30;55.00;;;;;;4922472;29;20446;-63
2023/05/12 02:40:39;;;;;;;6.85;4.70;;;12.30;55.00;;;;;;4924158;29;20471;-62
2023/05/12 02:43:05;;;;;;;6.15;4.68;;;12.30;55.30;;;;;;4934436;29;20482;-62
2023/05/12 02:45:31;;;;;;;5.10;4.43;;;12.40;55.40;;;;;;4931419;29;20379;-62
2023/05/12 02:47:56;;;;;;;5.35;4.50;;;12.40;55.70;;;;;;4934228;29;20028;-55
2023/05/12 02:50:22;;;;;;;6.05;4.80;;;12.40;55.90;;;;;;4917085;29;20036;-50
2023/05/12 02:52:48;;;;;;;5.00;4.20;;;12.40;56.00;;;;;;4928307;29;20625;-57
2023/05/12 02:55:14;;;;;;;6.13;4.50;;;12.40;56.20;;;;;;4930935;29;20386;-57
2023/05/12 02:57:40;;;;;;;6.93;4.45;;;12.50;56.30;;;;;;4932989;29;20056;-58
2023/05/12 03:00:06;;;;;;;7.05;4.18;;;12.50;56.40;;;;;;4933216;29;20036;-58
2023/05/12 03:02:33;;;;;;;5.57;4.43;;;12.50;56.40;;;;;;4928114;29;20024;-63
2023/05/12 03:04:59;;;;;;;5.88;4.68;;;12.60;56.60;;;;;;4927335;29;20066;-62
2023/05/12 03:07:25;;;;;;;6.20;4.32;;;12.60;56.70;;;;;;4935017;29;20039;-63
2023/05/12 03:09:51;;;;;;;5.90;4.47;;;12.70;56.90;;;;;;4934145;29;20062;-62
2023/05/12 03:12:16;;;;;;;6.03;4.43;;;12.70;57.00;;;;;;4931828;29;20095;-58
2023/05/12 03:14:42;;;;;;;6.55;4.68;;;12.80;57.00;;;;;;4933087;29;20036;-57
2023/05/12 03:17:08;;;;;;;7.25;4.95;;;12.90;57.10;;;;;;4922660;29;20494;-62
2023/05/12 03:19:36;;;;;;;5.22;4.32;;;13.00;57.20;;;;;;4930334;29;20058;-62
2023/05/12 03:22:02;;;;;;;7.22;4.97;;;13.10;57.20;;;;;;4932074;29;20378;-61
2023/05/12 03:24:28;;;;;;;6.88;4.90;;;13.20;57.30;;;;;;4933067;29;20035;-61
2023/05/12 03:26:54;;;;;;;4.63;4.00;;;13.40;57.50;;;;;;4938405;29;20643;-62
2023/05/12 03:29:20;;;;;;;5.40;4.75;;;13.50;57.60;;;;;;4934759;29;20032;-64
2023/05/12 03:31:46;;;;;;;6.25;4.68;;;13.70;57.80;;;;;;4931784;29;20046;-55
2023/05/12 03:34:11;;;;;;;5.88;4.35;;;13.80;57.80;;;;;;4924968;29;20036;-58
2023/05/12 03:36:37;;;;;;;5.47;4.70;;;14.00;58.00;;;;;;4929686;29;20144;-60
2023/05/12 03:39:03;;;;;;;9.43;4.43;;;14.20;58.20;;;;;;4934638;29;20121;-60
2023/05/12 03:41:29;;;;;;;6.35;4.78;;;14.40;58.30;;;;;;4934542;29;20039;-61
2023/05/12 03:43:54;;;;;;;5.20;4.50;;;14.70;58.20;;;;;;4928745;29;20439;-61
2023/05/12 03:46:20;;;;;;;5.72;4.78;;;14.90;57.70;;;;;;4927597;29;20478;-59
2023/05/12 03:48:46;;;;;;;5.95;4.28;;;15.10;57.20;;;;;;4919942;29;20186;-60
2023/05/12 03:51:12;;;;;;;5.70;4.32;;;15.40;57.10;;;;;;4921127;29;20035;-61
2023/05/12 03:53:41;;;;;;;5.50;3.95;;;15.80;57.10;;;;;;4924496;29;20467;-61
2023/05/12 03:56:07;;;;;;;5.25;3.75;;;16.40;56.60;;;;;;4923171;29;20051;-60
2023/05/12 03:58:33;;;;;;;4.88;3.80;;;17.00;55.80;;;;;;4929924;29;20032;-61
2023/05/12 04:01:00;;;;;;;5.65;4.05;;;17.80;55.00;;;;;;4934308;29;20391;-52
2023/05/12 04:03:29;;;;;;;4.88;4.03;;;18.60;53.90;;;;;;4931782;29;20040;-56
2023/05/12 04:05:59;;;;;;;4.88;3.90;;;19.40;52.70;;;;;;4928508;29;20095;-61
2023/05/12 04:08:25;;;;;;;4.47;3.70;;;20.20;51.60;;;;;;4930676;29;20444;-60
2023/05/12 04:10:54;;;;;;;5.10;3.90;;;20.90;50.80;;;;;;4926462;29;20383;-63
2023/05/12 04:13:20;;;;;;;6.03;3.85;;;21.50;49.80;;;;;;4922406;29;20058;-63
2023/05/12 04:15:46;;;;;;;4.53;3.63;;;22.10;49.10;;;;;;4926620;29;20442;-61
2023/05/12 04:18:12;;;;;;;5.80;3.67;;;22.60;48.30;;;;;;4929380;29;20032;-63
2023/05/12 04:20:37;;;;;;;4.47;3.67;;;23.20;47.70;;;;;;4933836;29;20031;-64
2023/05/12 04:23:03;;;;;;;3.92;3.28;;;23.60;47.10;;;;;;4934279;29;20040;-61
2023/05/12 04:25:29;;;;;;;5.05;3.40;;;23.80;46.30;;;;;;4934836;29;20028;-63
2023/05/12 04:27:55;;;;;;;4.40;3.55;;;23.90;46.30;;;;;;4938380;28;20032;-57
2023/05/12 04:30:20;;;;;;;5.97;3.80;;;24.10;46.20;;;;;;4930152;29;20031;-55
2023/05/12 04:32:47;;;;;;;4.63;3.78;;;24.40;45.90;;;;;;4929800;29;20375;-59
2023/05/12 04:35:13;;;;;;;3.80;3.38;;;24.80;45.70;;;;;;4924531;29;20059;-59
2023/05/12 04:37:39;;;;;;;4.50;3.50;;;25.20;45.20;;;;;;4926825;29;20146;-52
2023/05/12 04:40:06;;;;;;;4.70;3.20;;;25.50;44.90;;;;;;4925232;29;20032;-54
2023/05/12 04:42:31;;;;;;;4.88;3.67;;;25.80;44.60;;;;;;4926767;29;20044;-60
2023/05/12 04:44:57;;;;;;;5.88;4.00;;;26.20;44.20;;;;;;4928129;29;20032;-60
2023/05/12 04:47:23;;;;;;;5.10;3.78;;;26.50;43.90;;;;;;4920469;29;20036;-59
2023/05/12 04:49:48;;;;;;;3.95;3.30;;;26.60;43.50;;;;;;4917112;29;20059;-58
2023/05/12 04:52:14;;;;;;;5.07;3.75;;;26.70;43.40;;;;;;4932038;29;20028;-56
2023/05/12 04:54:39;;;;;;;5.13;3.67;;;26.80;43.40;;;;;;4928914;29;20569;-56
2023/05/12 04:57:05;;;;;;;4.68;3.50;;;26.90;43.80;;;;;;4926887;29;20075;-62
2023/05/12 04:59:31;;;;;;;4.18;3.10;;;27.10;43.10;;;;;;4925318;29;20038;-65
2023/05/12 05:01:57;;;;;;;5.88;3.80;;;27.20;42.90;;;;;;4929104;29;20063;-58
2023/05/12 05:04:22;;;;;;;6.28;3.80;;;27.20;42.50;;;;;;4921068;29;20107;-59
2023/05/12 05:06:48;;;;;;;4.95;3.60;;;27.00;42.60;;;;;;4928594;29;20046;-62
2023/05/12 05:09:14;;;;;;;4.93;3.90;;;26.80;42.50;;;;;;4929617;29;20024;-60
2023/05/12 05:11:40;;;;;;;4.65;3.58;;;26.40;42.40;;;;;;4929844;29;20462;-59
2023/05/12 05:14:05;;;;;;;4.38;3.65;;;25.90;42.60;;;;;;4924315;29;20036;-59
2023/05/12 05:16:31;;;;;;;3.83;3.40;;;25.50;43.00;;;;;;4925333;29;20028;-49
2023/05/12 05:18:56;;;;;;;4.70;3.90;;;25.40;43.30;;;;;;4924758;29;20036;-52
2023/05/12 05:21:22;;;;;;;4.05;3.45;;;25.40;43.00;;;;;;4934378;29;20044;-57
2023/05/12 05:23:48;;;;;;;5.57;3.88;;;25.60;42.60;;;;;;4922853;29;20036;-58
2023/05/12 05:26:13;;;;;;;5.50;3.80;;;25.50;42.20;;;;;;4926888;29;20092;-60
2023/05/12 05:28:39;;;;;;;5.55;4.07;;;25.10;42.20;;;;;;4927190;29;20039;-59
2023/05/12 05:31:05;;;;;;;4.78;3.60;;;24.60;42.50;;;;;;4928003;29;20051;-57
2023/05/12 05:33:31;;;;;;;5.50;4.38;;;23.90;43.00;;;;;;4933748;29;20462;-56
2023/05/12 05:35:57;;;;;;;5.22;4.10;;;23.30;43.70;;;;;;4930358;29;20044;-61
2023/05/12 05:38:22;;;;;;;4.20;3.60;;;22.70;44.40;;;;;;4927444;29;20035;-60
2023/05/12 05:40:48;;;;;;;6.13;4.05;;;22.00;45.00;;;;;;4933673;29;20439;-59
2023/05/12 05:43:14;;;;;;;6.10;4.40;;;21.50;45.60;;;;;;4934282;29;20163;-59
2023/05/12 05:45:39;;;;;;;5.68;4.10;;;21.10;46.30;;;;;;4922675;29;20122;-58
2023/05/12 05:48:05;;;;;;;4.50;3.85;;;20.70;46.90;;;;;;4927183;29;20684;-58
2023/05/12 05:50:31;;;;;;;5.45;4.30;;;20.40;47.50;;;;;;4924298;29;20036;-59
2023/05/12 05:52:57;;;;;;;6.05;4.65;;;20.10;47.80;;;;;;4935734;29;20043;-58
2023/05/12 05:55:23;;;;;;;6.28;4.18;;;19.80;48.40;;;;;;4924417;29;20036;-57
2023/05/12 05:57:48;;;;;;;5.22;4.05;;;19.60;48.70;;;;;;4920012;29;20032;-58
2023/05/12 06:00:14;;;;;;;6.28;4.28;;;19.50;49.20;;;;;;4925488;29;20040;-58
2023/05/12 06:02:40;;;;;;;5.43;4.00;;;19.30;49.50;;;;;;4926533;29;20043;-58
2023/05/12 06:05:07;;;;;;;6.88;4.60;;;19.20;49.70;;;;;;4926456;29;20032;-58
2023/05/12 06:07:33;;;;;;;4.68;3.70;;;19.10;50.00;;;;;;4930936;29;20043;-57
2023/05/12 06:09:58;;;;;;;5.10;3.85;;;19.00;50.10;;;;;;4926141;29;20036;-59
2023/05/12 06:12:24;;;;;;;5.07;4.13;;;18.90;50.20;;;;;;4928956;29;20468;-55
2023/05/12 06:14:50;;;;;;;5.57;4.40;;;18.80;50.60;;;;;;4925935;29;20070;-58
2023/05/12 06:17:16;;;;;;;5.28;3.83;;;18.70;50.70;;;;;;4932411;29;20048;-58
2023/05/12 06:19:46;;;;;;;4.65;3.47;;;18.70;50.90;;;;;;4922570;29;20055;-58
2023/05/12 06:22:13;;;;;;;5.13;4.00;;;18.70;51.20;;;;;;4924698;29;20026;-59
2023/05/12 06:24:39;;;;;;;4.45;3.60;;;18.60;51.20;;;;;;4921177;29;20036;-59
2023/05/12 06:27:05;;;;;;;5.50;4.18;;;18.60;51.40;;;;;;4919459;29;20079;-58
2023/05/12 06:29:31;;;;;;;5.43;3.85;;;18.50;51.50;;;;;;4912120;29;20039;-57
2023/05/12 06:31:56;;;;;;;5.75;3.90;;;18.50;51.80;;;;;;4922016;29;20036;-58
2023/05/12 06:34:22;;;;;;;5.43;4.15;;;18.50;51.80;;;;;;4916112;29;20058;-58
2023/05/12 06:36:48;;;;;;;4.78;3.75;;;18.50;51.80;;;;;;4924420;29;20126;-58
2023/05/12 06:39:13;;;;;;;4.88;3.60;;;18.50;51.90;;;;;;4920390;29;20119;-58
2023/05/12 06:41:39;;;;;;;5.18;3.90;;;18.50;52.00;;;;;;4926664;29;20456;-58
2023/05/12 06:44:05;;;;;;;5.95;4.35;;;18.50;52.10;;;;;;4924922;29;20034;-58
2023/05/12 06:46:31;;;;;;;6.68;4.07;;;18.50;52.10;;;;;;4923436;29;20068;-57
2023/05/12 06:48:59;;;;;;;4.82;4.03;;;18.50;52.20;;;;;;4921382;29;20091;-58
2023/05/12 06:51:25;;;;;;;5.57;4.38;;;18.50;52.30;;;;;;4910798;29;20024;-56
2023/05/12 06:53:50;;;;;;;4.53;3.90;;;18.50;52.30;;;;;;4915171;29;20106;-57
2023/05/12 06:56:16;;;;;;;5.10;4.20;;;18.50;52.50;;;;;;4910441;29;20072;-59
2023/05/12 06:58:42;;;;;;;4.78;3.47;;;18.50;52.50;;;;;;4913812;29;20044;-60
2023/05/12 07:01:08;;;;;;;6.30;4.28;;;18.50;52.50;;;;;;4916508;29;20039;-59
2023/05/12 07:03:34;;;;;;;6.18;4.10;;;18.50;52.80;;;;;;4918916;29;20652;-58
2023/05/12 07:05:59;;;;;;;5.22;4.03;;;18.60;52.90;;;;;;4913124;29;20043;-58
2023/05/12 07:08:25;;;;;;;5.13;3.85;;;18.60;52.60;;;;;;4919215;29;20032;-59
2023/05/12 07:10:51;;;;;;;4.80;3.60;;;18.60;52.50;;;;;;4913841;29;20118;-58
2023/05/12 07:13:17;;;;;;;4.65;3.40;;;18.60;52.30;;;;;;4910931;29;20352;-58
2023/05/12 07:15:43;;;;;;;3.85;3.30;;;18.70;52.20;;;;;;4908937;29;20378;-58
2023/05/12 07:18:09;;;;;;;5.10;3.53;;;18.70;52.10;;;;;;4905266;29;20043;-56
2023/05/12 07:20:35;;;;;;;3.58;3.20;;;18.70;51.90;;;;;;4909637;29;20040;-59
2023/05/12 07:23:00;;;;;;;5.15;3.72;;;18.70;51.90;;;;;;4914990;29;20433;-57
2023/05/12 07:25:27;;;;;;;4.90;3.85;;;18.70;51.90;;;;;;4911675;29;20031;-58
2023/05/12 07:27:52;;;;;;;4.00;3.33;;;18.80;52.00;;;;;;4914758;29;20027;-59
2023/05/12 07:30:21;;;;;;;4.45;3.55;;;18.80;52.20;;;;;;4917086;29;20525;-59
2023/05/12 07:32:46;;;;;;;3.70;3.15;;;18.80;52.30;;;;;;4917760;29;20020;-58
2023/05/12 07:35:12;;;;;;;3.63;3.03;;;18.80;52.10;;;;;;4912402;29;20036;-58
2023/05/12 07:37:38;;;;;;;4.00;3.20;;;18.90;51.80;;;;;;4913455;29;20139;-58
2023/05/12 07:40:04;;;;;;;4.63;3.25;;;18.90;51.70;;;;;;4909623;29;20375;-60
2023/05/12 07:42:30;;;;;;;3.63;3.00;;;18.90;51.60;;;;;;4918848;29;20036;-59
2023/05/12 07:44:55;;;;;;;3.17;2.88;;;19.00;51.50;;;;;;4916294;29;20042;-58
2023/05/12 07:47:21;;;;;;;4.00;3.30;;;18.90;51.40;;;;;;4920505;29;20040;-60
2023/05/12 07:49:47;;;;;;;3.47;3.03;;;19.00;51.40;;;;;;4915071;29;20115;-60
2023/05/12 07:52:12;;;;;;;3.90;3.10;;;19.00;51.40;;;;;;4918760;29;20035;-59
2023/05/12 07:54:38;;;;;;;4.90;3.30;;;19.00;51.50;;;;;;4915398;29;20031;-58
2023/05/12 07:57:04;;;;;;;4.10;3.35;;;19.00;51.40;;;;;;4911501;29;20099;-58
2023/05/12 07:59:30;;;;;;;3.60;3.00;;;19.10;51.30;;;;;;4920907;29;20047;-57
2023/05/12 08:01:55;;;;;;;6.22;3.22;;;19.10;51.00;;;;;;4906383;29;20188;-57
2023/05/12 08:04:21;;;;;;;4.63;3.17;;;19.10;51.10;;;;;;4908182;29;20070;-57
2023/05/12 08:06:47;;;;;;;3.55;3.00;;;19.10;51.10;;;;;;4907222;29;20493;-59
2023/05/12 08:09:12;;;;;;;4.25;2.97;;;19.10;51.00;;;;;;4899388;29;20046;-56
2023/05/12 08:11:38;;;;;;;3.53;3.17;;;19.20;51.10;;;;;;4911818;29;20103;-57
2023/05/12 08:14:05;;;;;;;3.50;3.20;;;19.20;50.90;;;;;;4904451;29;20429;-57
2023/05/12 08:16:30;;;;;;;3.97;3.08;;;19.10;51.00;;;;;;4903524;29;20042;-57
2023/05/12 08:18:57;;;;;;;3.92;2.85;;;19.10;50.90;;;;;;4909006;29;20040;-57
2023/05/12 08:21:23;;;;;;;3.88;3.33;;;19.20;50.80;;;;;;4900570;29;21449;-57
2023/05/12 08:23:48;;;;;;;4.20;3.40;;;19.20;51.40;;;;;;4909649;29;20031;-59
2023/05/12 08:26:14;;;;;;;3.47;2.92;;;19.20;50.40;;;;;;4908679;29;20101;-58
2023/05/12 08:28:40;;;;;;;4.28;3.35;;;19.20;50.40;;;;;;4915559;29;20039;-58
2023/05/12 08:31:06;;;;;;;4.22;2.78;;;19.20;50.60;;;;;;4907876;29;20039;-58
2023/05/12 08:33:34;;;;;;;4.38;3.17;;;19.10;50.50;;;;;;4907657;29;20035;-59
2023/05/12 08:36:01;;;;;;;3.05;2.72;;;19.10;50.20;;;;;;4905660;29;20083;-59
2023/05/12 08:38:27;;;;;;;3.15;2.78;;;19.10;49.90;;;;;;4907944;29;20040;-60
2023/05/12 08:41:16;;;;;;;3.70;3.00;;;19.10;49.80;;;;;;4910411;29;20031;-58
2023/05/12 08:43:51;;;;;;;4.53;3.17;;;19.10;49.60;;;;;;4912635;29;20056;-60
2023/05/12 08:46:17;;;;;;;5.07;3.00;;;19.00;49.30;;;;;;4903145;29;20068;-59
2023/05/12 08:48:46;;;;;;;3.58;3.10;;;19.00;49.40;;;;;;4908628;29;20391;-57
2023/05/12 08:51:12;;;;;;;3.78;2.78;;;19.00;49.20;;;;;;4904962;29;20857;-60
2023/05/12 08:53:39;;;;;;;4.15;3.08;;;18.90;49.00;;;;;;4906456;29;20123;-58
2023/05/12 08:56:07;;;;;;;2.95;2.72;;;19.00;48.60;;;;;;4913211;29;20056;-56
2023/05/12 08:58:34;;;;;;;2.95;2.65;;;19.00;48.50;;;;;;4917464;29;20027;-59
2023/05/12 09:01:04;;;;;;;2.95;2.60;;;19.00;48.30;;;;;;4916983;29;21003;-59
2023/05/12 09:03:30;;;;;;;3.58;2.88;;;18.90;48.00;;;;;;4904988;29;20557;-60
2023/05/12 09:05:58;;;;;;;3.53;2.70;;;18.90;47.90;;;;;;4909285;29;20191;-59
2023/05/12 09:08:28;;;;;;;2.72;2.35;;;18.90;47.70;;;;;;4915354;29;20035;-58
2023/05/12 09:10:55;;;;;;;3.67;2.40;;;18.80;47.70;;;;;;4917013;29;20550;-57
2023/05/12 09:13:52;;;;;;;2.95;2.50;;;18.80;47.70;;;;;;4903024;29;20035;-58
2023/05/12 09:16:23;;;;;;;2.70;2.50;;;18.80;47.50;;;;;;4907081;29;20047;-59
2023/05/12 09:18:50;;;;;;;4.15;2.70;;;18.80;47.40;;;;;;4914030;29;20387;-59
2023/05/12 09:21:16;;;;;;;4.60;2.30;;;18.80;47.20;;;;;;4910226;29;20027;-58
2023/05/12 09:23:54;;;;;;;3.45;2.80;;;18.80;47.00;;;;;;4910156;29;20086;-59
2023/05/12 09:26:24;;;;;;;2.83;2.47;;;18.70;47.30;;;;;;4909604;29;20043;-60
2023/05/12 09:28:52;;;;;;;2.88;2.63;;;18.70;46.70;;;;;;4911383;29;20035;-61
2023/05/12 09:31:19;;;;;;;3.13;2.70;;;18.70;46.30;;;;;;4909984;29;20028;-60
2023/05/12 09:33:45;;;;;;;4.20;2.80;;;18.80;46.40;;;;;;4911503;29;20040;-58
2023/05/12 09:36:18;;;;;;;3.45;2.63;;;18.80;46.50;;;;;;4916774;29;20042;-59
2023/05/12 09:38:44;;;;;;;3.00;2.50;;;18.80;46.40;;;;;;4920449;29;20035;-63
2023/05/12 09:41:09;;;;;;;2.92;2.60;;;18.80;46.20;;;;;;4902590;29;20025;-60
2023/05/12 09:43:36;;;;;;;4.50;3.00;;;18.80;46.00;;;;;;4913183;29;20070;-59
2023/05/12 09:46:05;;;;;;;3.65;2.67;;;18.80;45.90;;;;;;4908185;29;20056;-59
2023/05/12 09:48:32;;;;;;;2.67;2.47;;;18.80;45.90;;;;;;4915230;29;20371;-63
2023/05/12 09:50:57;;;;;;;3.03;2.72;;;18.80;45.60;;;;;;4911397;29;20035;-61
2023/05/12 09:53:23;;;;;;;3.90;2.55;;;18.80;45.50;;;;;;4915924;29;20762;-60
2023/05/12 09:55:49;;;;;;;3.70;2.78;;;18.80;45.30;;;;;;4909846;29;20071;-59
2023/05/12 09:58:17;;;;;;;2.97;2.45;;;18.80;45.50;;;;;;4911651;29;20036;-58
2023/05/12 10:00:44;;;;;;;3.00;2.70;;;18.80;46.00;;;;;;4913623;29;20487;-59
2023/05/12 10:03:13;;;;;;;4.35;2.63;;;18.80;47.00;;;;;;4913797;29;20031;-57
2023/05/12 10:05:49;;;;;;;2.92;2.63;;;18.80;46.40;;;;;;4917595;29;20058;-56
2023/05/12 10:08:23;;;;;;;3.95;2.72;;;18.80;46.10;;;;;;4904294;29;20046;-57
2023/05/12 10:10:51;;;;;;;5.05;2.83;;;18.80;46.00;;;;;;4907398;29;20155;-56
2023/05/12 10:13:17;;;;;;;3.17;2.63;;;18.80;45.80;;;;;;4909013;29;20031;-57
2023/05/12 10:15:45;;;;;;;3.03;2.67;;;18.90;45.70;;;;;;4917934;29;20032;-58
2023/05/12 10:18:11;;;;;;;5.40;2.78;;;18.90;45.60;;;;;;4920475;29;20037;-58
2023/05/12 10:20:38;;;;;;;3.97;2.42;;;18.90;45.30;;;;;;4918106;29;20098;-58
2023/05/12 10:23:05;;;;;;;2.95;2.58;;;18.90;45.30;;;;;;4915973;29;20028;-58
2023/05/12 10:25:32;;;;;;;3.05;2.35;;;19.00;45.30;;;;;;4916659;29;20652;-57
2023/05/12 10:28:02;;;;;;;2.97;2.53;;;19.00;45.30;;;;;;4922671;29;20165;-57
2023/05/12 10:30:28;;;;;;;3.05;2.75;;;18.90;45.10;;;;;;4915957;29;20098;-58
2023/05/12 10:32:56;;;;;;;2.70;2.50;;;18.90;45.20;;;;;;4910532;29;20439;-58
2023/05/12 10:35:32;;;;;;;2.63;2.42;;;18.90;45.20;;;;;;4915293;29;20621;-59
2023/05/12 10:38:10;;;;;;;3.00;2.70;;;18.90;45.00;;;;;;4918231;29;20031;-59
2023/05/12 10:40:50;;;;;;;2.95;2.63;;;18.90;44.90;;;;;;4925106;29;20036;-59
2023/05/12 10:43:27;;;;;;;2.85;2.50;;;18.90;45.00;;;;;;4919956;29;20036;-59
2023/05/12 10:46:11;;;;;;;2.40;2.20;;;18.80;44.90;;;;;;4917635;29;20055;-59
2023/05/12 10:48:55;;;;;;;3.88;2.60;;;18.80;44.90;;;;;;4921133;29;20028;-58
2023/05/12 10:51:23;;;;;;;3.53;2.63;;;18.80;45.00;;;;;;4916888;29;22119;-57
2023/05/12 10:53:56;;;;;;;3.17;2.80;;;18.70;44.90;;;;;;4924666;29;20083;-58
2023/05/12 10:56:43;;;;;;;2.60;2.40;;;18.80;44.80;;;;;;4920189;29;20099;-57
2023/05/12 10:59:16;;;;;;;3.13;2.50;;;18.70;44.70;;;;;;4919604;29;20110;-58
2023/05/12 11:02:02;;;;;;;3.20;2.70;;;18.70;44.40;;;;;;4921901;29;20368;-58
2023/05/12 11:04:50;;;;;;;3.03;2.60;;;18.80;44.40;;;;;;4914805;29;20028;-59
2023/05/12 11:07:19;;;;;;;2.80;2.55;;;18.70;44.30;;;;;;4912678;29;20035;-58
2023/05/12 11:09:46;;;;;;;2.60;2.40;;;18.80;44.40;;;;;;4916648;29;20036;-58
2023/05/12 11:12:13;;;;;;;3.70;2.58;;;18.80;44.60;;;;;;4911121;29;20027;-57
2023/05/12 11:14:40;;;;;;;3.50;2.50;;;18.80;45.00;;;;;;4915133;29;20055;-59
2023/05/12 11:17:08;;;;;;;3.50;2.83;;;18.80;45.10;;;;;;4906998;29;20159;-58
2023/05/12 11:19:34;;;;;;;4.07;2.60;;;18.80;44.90;;;;;;4912443;29;20024;-59
2023/05/12 11:22:08;;;;;;;3.03;2.53;;;18.80;44.80;;;;;;4899966;29;20035;-59
2023/05/12 11:24:35;;;;;;;2.55;2.35;;;18.80;44.80;;;;;;4903821;29;20144;-59
2023/05/12 11:27:03;;;;;;;2.70;2.50;;;18.70;44.80;;;;;;4908679;29;20086;-58
2023/05/12 11:29:29;;;;;;;3.35;2.45;;;18.70;44.80;;;;;;4905954;29;20039;-58
2023/05/12 11:31:54;;;;;;;2.88;2.58;;;18.70;44.90;;;;;;4907177;29;20036;-58
2023/05/12 11:34:22;;;;;;;2.50;2.30;;;18.70;45.10;;;;;;4906015;29;20690;-58
2023/05/12 11:36:47;;;;;;;2.40;2.20;;;18.70;45.00;;;;;;4909977;29;20126;-57
2023/05/12 11:39:16;;;;;;;2.47;2.08;;;18.70;44.90;;;;;;4909038;29;20028;-58
2023/05/12 11:41:42;;;;;;;2.83;2.20;;;18.60;45.00;;;;;;4913197;29;20059;-57
2023/05/12 11:44:16;;;;;;;4.10;2.80;;;18.60;44.90;;;;;;4899379;29;20042;-57
2023/05/12 11:46:53;;;;;;;3.30;2.55;;;18.50;44.80;;;;;;4909355;29;20048;-57
2023/05/12 11:49:19;;;;;;;2.70;2.45;;;18.50;44.80;;;;;;4912579;29;20483;-56
2023/05/12 11:51:44;;;;;;;4.10;2.63;;;18.50;44.80;;;;;;4906477;29;20048;-58
2023/05/12 11:54:10;;;;;;;3.65;2.50;;;18.50;44.80;;;;;;4903384;29;20050;-58
2023/05/12 11:56:36;;;;;;;3.40;2.33;;;18.50;44.80;;;;;;4895515;29;20063;-58
2023/05/12 11:59:01;;;;;;;2.63;2.42;;;18.50;44.70;;;;;;4907059;29;20478;-58
2023/05/12 12:01:27;;;;;;;2.63;2.42;;;18.40;44.60;;;;;;4909237;29;20035;-58
2023/05/12 12:03:54;;;;;;;4.05;2.50;;;18.40;44.50;;;;;;4901008;29;20043;-57
2023/05/12 12:06:21;;;;;;;3.22;2.40;;;18.40;44.60;;;;;;4902538;29;20075;-58
2023/05/12 12:08:50;;;;;;;2.78;2.00;;;18.40;44.60;;;;;;4904528;29;20066;-59
2023/05/12 12:11:20;;;;;;;2.50;2.30;;;18.40;44.70;;;;;;4909100;29;20035;-58
2023/05/12 12:13:56;;;;;;;2.67;2.33;;;18.40;44.70;;;;;;4905854;29;20099;-58
2023/05/12 12:16:26;;;;;;;2.40;2.20;;;18.40;44.60;;;;;;4909101;29;20079;-59
2023/05/12 12:18:52;;;;;;;2.78;2.30;;;18.40;44.70;;;;;;4917783;29;20032;-58
2023/05/12 12:21:18;;;;;;;2.33;2.08;;;18.40;44.60;;;;;;4911343;29;20691;-58
2023/05/12 12:23:44;;;;;;;2.25;2.05;;;18.40;44.70;;;;;;4905606;29;20079;-58
2023/05/12 12:26:10;;;;;;;3.55;2.28;;;18.40;44.60;;;;;;4905972;29;20051;-58
2023/05/12 12:28:35;;;;;;;3.10;2.42;;;18.40;44.50;;;;;;4909881;29;20040;-57
2023/05/12 12:31:01;;;;;;;2.58;2.38;;;18.40;44.40;;;;;;4907817;29;20694;-56
2023/05/12 12:33:27;;;;;;;2.50;2.30;;;18.40;44.50;;;;;;4910555;29;20044;-57
2023/05/12 12:35:53;;;;;;;2.45;2.25;;;18.40;44.40;;;;;;4911744;29;20791;-57
2023/05/12 12:38:19;;;;;;;3.00;2.40;;;18.40;44.30;;;;;;4905338;29;20032;-57
2023/05/12 12:40:45;;;;;;;2.70;2.50;;;18.40;44.20;;;;;;4907200;29;20024;-56
2023/05/12 12:43:11;;;;;;;2.85;2.22;;;18.40;44.10;;;;;;4907870;29;20127;-57
2023/05/12 12:45:36;;;;;;;2.83;2.50;;;18.40;44.10;;;;;;4912974;29;20024;-57
2023/05/12 12:48:02;;;;;;;2.60;2.40;;;18.40;44.00;;;;;;4905805;29;20051;-57